createdAt,value
2022-09-15T00:00:12.481Z,80.33
2022-09-15T00:00:33.527Z,80.38
2022-09-15T00:00:54.584Z,80.45
2022-09-15T00:01:15.801Z,80.51
2022-09-15T00:01:36.943Z,80.54
2022-09-15T00:01:58.073Z,80.59
2022-09-15T00:02:19.245Z,80.60
2022-09-15T00:02:40.474Z,80.65
2022-09-15T00:03:01.715Z,80.68
2022-09-15T00:03:22.886Z,80.64
2022-09-15T00:03:43.915Z,80.69
2022-09-15T00:04:04.971Z,80.65
2022-09-15T00:04:26.022Z,80.60
2022-09-15T00:04:47.073Z,80.58
2022-09-15T00:05:08.134Z,80.55
2022-09-15T00:05:29.210Z,80.57
2022-09-15T00:05:50.249Z,80.56
2022-09-15T00:06:11.300Z,80.50
2022-09-15T00:06:32.345Z,80.44
2022-09-15T00:06:53.399Z,80.42
2022-09-15T00:07:14.443Z,80.38
2022-09-15T00:07:35.507Z,80.37
2022-09-15T00:07:56.544Z,80.36
2022-09-15T00:08:17.597Z,80.38
2022-09-15T00:08:38.769Z,80.41
2022-09-15T00:08:59.931Z,80.35
2022-09-15T00:09:20.950Z,80.39
2022-09-15T00:09:42.014Z,80.36
2022-09-15T00:10:03.053Z,80.44
2022-09-15T00:10:24.108Z,80.44
2022-09-15T00:10:45.161Z,80.46
2022-09-15T00:11:06.213Z,80.47
2022-09-15T00:11:27.281Z,80.47
2022-09-15T00:11:48.328Z,80.47
2022-09-15T00:12:09.421Z,80.47
2022-09-15T00:12:30.430Z,80.42
2022-09-15T00:12:51.517Z,80.48
2022-09-15T00:13:12.632Z,80.46
2022-09-15T00:13:33.705Z,80.41
2022-09-15T00:13:54.772Z,80.36
2022-09-15T00:14:15.806Z,80.35
2022-09-15T00:14:36.850Z,80.37
2022-09-15T00:14:57.900Z,80.42
2022-09-15T00:15:18.977Z,80.25
2022-09-15T00:15:40.039Z,80.29
2022-09-15T00:16:01.085Z,80.29
2022-09-15T00:16:22.199Z,80.36
2022-09-15T00:16:43.288Z,80.39
2022-09-15T00:17:04.398Z,80.43
2022-09-15T00:17:25.427Z,80.46
2022-09-15T00:17:46.477Z,80.52
2022-09-15T00:18:07.547Z,80.53
2022-09-15T00:18:28.590Z,80.47
2022-09-15T00:18:49.789Z,80.50
2022-09-15T00:19:10.840Z,80.48
2022-09-15T00:19:31.891Z,80.33
2022-09-15T00:19:52.943Z,80.30
2022-09-15T00:20:14.016Z,80.23
2022-09-15T00:20:35.057Z,80.20
2022-09-15T00:20:56.114Z,80.16
2022-09-15T00:21:17.167Z,80.14
2022-09-15T00:21:38.219Z,80.13
2022-09-15T00:21:59.269Z,80.14
2022-09-15T00:22:20.313Z,80.18
2022-09-15T00:22:41.367Z,80.20
2022-09-15T00:23:02.431Z,80.13
2022-09-15T00:23:23.501Z,80.20
2022-09-15T00:23:44.537Z,80.18
2022-09-15T00:24:05.737Z,80.18
2022-09-15T00:24:26.817Z,80.11
2022-09-15T00:24:47.825Z,80.10
2022-09-15T00:25:08.879Z,80.12
2022-09-15T00:25:29.962Z,80.03
2022-09-15T00:25:51.009Z,80.10
2022-09-15T00:26:12.075Z,80.11
2022-09-15T00:26:33.142Z,80.09
2022-09-15T00:26:54.188Z,80.14
2022-09-15T00:27:15.252Z,80.17
2022-09-15T00:27:36.323Z,80.14
2022-09-15T00:27:57.402Z,80.12
2022-09-15T00:28:18.436Z,80.18
2022-09-15T00:28:39.498Z,80.19
2022-09-15T00:29:00.542Z,80.19
2022-09-15T00:29:21.622Z,80.18
2022-09-15T00:29:42.664Z,80.19
2022-09-15T00:30:03.714Z,80.27
2022-09-15T00:30:24.786Z,80.22
2022-09-15T00:30:45.984Z,80.29
2022-09-15T00:31:07.075Z,80.30
2022-09-15T00:31:28.403Z,80.28
2022-09-15T00:31:49.447Z,80.30
2022-09-15T00:32:10.503Z,80.29
2022-09-15T00:32:31.596Z,80.30
2022-09-15T00:32:52.637Z,80.29
2022-09-15T00:33:13.693Z,80.27
2022-09-15T00:33:34.741Z,80.28
2022-09-15T00:33:55.785Z,80.28
2022-09-15T00:34:16.842Z,80.26
2022-09-15T00:34:38.033Z,80.28
2022-09-15T00:34:59.102Z,80.28
2022-09-15T00:35:20.139Z,80.31
2022-09-15T00:35:41.197Z,80.34
2022-09-15T00:36:02.247Z,80.39
2022-09-15T00:36:23.307Z,80.39
2022-09-15T00:36:44.358Z,80.34
2022-09-15T00:37:05.435Z,80.40
2022-09-15T00:37:26.474Z,80.34
2022-09-15T00:37:47.524Z,80.39
2022-09-15T00:38:08.605Z,80.38
2022-09-15T00:38:29.630Z,80.39
2022-09-15T00:38:50.676Z,80.40
2022-09-15T00:39:11.845Z,80.40
2022-09-15T00:39:32.847Z,80.44
2022-09-15T00:39:54.071Z,80.40
2022-09-15T00:40:15.193Z,80.41
2022-09-15T00:40:36.229Z,80.45
2022-09-15T00:40:57.278Z,80.50
2022-09-15T00:41:18.336Z,80.52
2022-09-15T00:41:39.381Z,80.54
2022-09-15T00:42:00.431Z,80.54
2022-09-15T00:42:21.485Z,80.54
2022-09-15T00:42:42.568Z,80.51
2022-09-15T00:43:03.594Z,80.52
2022-09-15T00:43:24.661Z,80.54
2022-09-15T00:43:45.741Z,80.51
2022-09-15T00:44:06.764Z,80.49
2022-09-15T00:44:27.815Z,80.47
2022-09-15T00:44:48.907Z,80.41
2022-09-15T00:45:09.958Z,80.41
2022-09-15T00:45:31.058Z,80.42
2022-09-15T00:45:52.116Z,80.39
2022-09-15T00:46:13.408Z,80.41
2022-09-15T00:46:34.448Z,80.34
2022-09-15T00:47:17.661Z,80.35
2022-09-15T00:47:22.473Z,80.43
2022-09-15T00:47:43.527Z,80.39
2022-09-15T00:48:04.577Z,80.43
2022-09-15T00:48:25.625Z,80.43
2022-09-15T00:48:46.672Z,80.40
2022-09-15T00:49:07.774Z,80.40
2022-09-15T00:49:28.806Z,80.42
2022-09-15T00:49:49.874Z,80.47
2022-09-15T00:50:10.930Z,80.42
2022-09-15T00:50:31.982Z,80.42
2022-09-15T00:50:53.027Z,80.40
2022-09-15T00:51:14.082Z,80.41
2022-09-15T00:51:35.134Z,80.42
2022-09-15T00:51:56.203Z,80.45
2022-09-15T00:52:17.259Z,80.47
2022-09-15T00:52:38.312Z,80.45
2022-09-15T00:52:59.375Z,80.49
2022-09-15T00:53:20.443Z,80.42
2022-09-15T00:53:41.539Z,80.44
2022-09-15T00:54:02.540Z,80.37
2022-09-15T00:54:23.727Z,80.40
2022-09-15T00:54:44.722Z,80.41
2022-09-15T00:55:05.904Z,80.44
2022-09-15T00:55:26.958Z,80.42
2022-09-15T00:55:48.033Z,80.41
2022-09-15T00:56:09.067Z,80.39
2022-09-15T00:56:30.131Z,80.41
2022-09-15T00:56:51.178Z,80.39
2022-09-15T00:57:12.225Z,80.39
2022-09-15T00:57:33.291Z,80.40
2022-09-15T00:57:54.362Z,80.37
2022-09-15T00:58:15.444Z,80.39
2022-09-15T00:58:36.486Z,80.40
2022-09-15T00:58:57.540Z,80.45
2022-09-15T00:59:18.585Z,80.38
2022-09-15T00:59:39.635Z,80.37
2022-09-15T01:00:00.688Z,80.38
2022-09-15T01:00:21.912Z,80.36
2022-09-15T01:00:42.979Z,80.30
2022-09-15T01:01:04.117Z,80.34
2022-09-15T01:01:25.378Z,80.30
2022-09-15T01:01:46.617Z,80.28
2022-09-15T01:02:07.818Z,80.27
2022-09-15T01:02:28.929Z,80.23
2022-09-15T01:02:49.983Z,80.22
2022-09-15T01:03:11.035Z,80.24
2022-09-15T01:03:32.081Z,80.27
2022-09-15T01:03:53.140Z,80.28
2022-09-15T01:04:14.199Z,80.26
2022-09-15T01:04:35.254Z,80.21
2022-09-15T01:04:58.559Z,80.20
2022-09-15T01:05:19.897Z,80.23
2022-09-15T01:05:41.061Z,80.21
2022-09-15T01:06:02.116Z,80.17
2022-09-15T01:06:23.161Z,80.19
2022-09-15T01:06:44.261Z,80.22
2022-09-15T01:07:05.283Z,80.24
2022-09-15T01:07:26.332Z,80.30
2022-09-15T01:07:47.401Z,80.26
2022-09-15T01:08:08.447Z,80.23
2022-09-15T01:08:29.493Z,80.22
2022-09-15T01:08:50.659Z,80.17
2022-09-15T01:09:11.709Z,80.21
2022-09-15T01:09:32.792Z,80.20
2022-09-15T01:09:53.816Z,80.19
2022-09-15T01:10:15.004Z,80.20
2022-09-15T01:10:36.068Z,80.18
2022-09-15T01:10:57.125Z,80.28
2022-09-15T01:11:18.181Z,80.24
2022-09-15T01:11:39.227Z,80.24
2022-09-15T01:12:00.282Z,80.21
2022-09-15T01:12:21.335Z,80.23
2022-09-15T01:12:42.387Z,80.16
2022-09-15T01:13:03.466Z,80.13
2022-09-15T01:13:24.492Z,80.18
2022-09-15T01:13:45.545Z,80.14
2022-09-15T01:14:06.593Z,80.11
2022-09-15T01:14:27.656Z,80.05
2022-09-15T01:14:48.713Z,80.02
2022-09-15T01:15:09.831Z,80.07
2022-09-15T01:15:30.860Z,80.04
2022-09-15T01:15:51.939Z,80.04
2022-09-15T01:16:13.045Z,80.04
2022-09-15T01:16:34.224Z,80.06
2022-09-15T01:16:55.307Z,80.12
2022-09-15T01:17:16.375Z,80.13
2022-09-15T01:17:37.418Z,80.14
2022-09-15T01:17:58.478Z,80.10
2022-09-15T01:18:19.532Z,80.11
2022-09-15T01:18:40.579Z,80.19
2022-09-15T01:19:01.634Z,80.20
2022-09-15T01:19:22.722Z,80.24
2022-09-15T01:19:43.740Z,80.26
2022-09-15T01:20:04.790Z,80.26
2022-09-15T01:20:25.842Z,80.36
2022-09-15T01:20:46.916Z,80.36
2022-09-15T01:21:07.970Z,80.51
2022-09-15T01:21:29.033Z,80.47
2022-09-15T01:21:50.066Z,80.47
2022-09-15T01:22:11.115Z,80.50
2022-09-15T01:22:32.191Z,80.57
2022-09-15T01:22:53.236Z,80.52
2022-09-15T01:23:14.285Z,80.48
2022-09-15T01:23:35.353Z,80.54
2022-09-15T01:23:56.401Z,80.56
2022-09-15T01:24:17.447Z,80.55
2022-09-15T01:24:38.524Z,80.56
2022-09-15T01:24:59.561Z,80.53
2022-09-15T01:25:20.642Z,80.50
2022-09-15T01:25:41.675Z,80.44
2022-09-15T01:26:02.749Z,80.40
2022-09-15T01:26:23.829Z,80.44
2022-09-15T01:26:44.872Z,80.45
2022-09-15T01:27:24.082Z,80.44
2022-09-15T01:27:42.659Z,80.61
2022-09-15T01:27:59.880Z,80.63
2022-09-15T01:28:20.918Z,80.61
2022-09-15T01:28:43.739Z,80.63
2022-09-15T01:29:04.891Z,80.68
2022-09-15T01:29:25.940Z,80.63
2022-09-15T01:29:46.998Z,80.64
2022-09-15T01:30:08.040Z,80.66
2022-09-15T01:30:29.088Z,80.63
2022-09-15T01:30:50.156Z,80.68
2022-09-15T01:31:11.289Z,80.72
2022-09-15T01:31:32.409Z,80.70
2022-09-15T01:31:53.485Z,80.70
2022-09-15T01:32:14.525Z,80.69
2022-09-15T01:32:35.602Z,80.60
2022-09-15T01:32:56.634Z,80.58
2022-09-15T01:33:17.689Z,80.59
2022-09-15T01:33:38.751Z,80.59
2022-09-15T01:33:59.803Z,80.46
2022-09-15T01:34:20.852Z,80.49
2022-09-15T01:34:41.911Z,80.46
2022-09-15T01:35:02.967Z,80.39
2022-09-15T01:35:24.025Z,80.34
2022-09-15T01:35:45.073Z,80.37
2022-09-15T01:36:06.172Z,80.31
2022-09-15T01:36:27.204Z,80.33
2022-09-15T01:36:48.258Z,80.32
2022-09-15T01:37:09.317Z,80.27
2022-09-15T01:37:30.362Z,80.24
2022-09-15T01:37:51.425Z,80.21
2022-09-15T01:38:12.479Z,80.16
2022-09-15T01:38:33.525Z,80.16
2022-09-15T01:38:54.582Z,80.11
2022-09-15T01:39:15.658Z,80.02
2022-09-15T01:39:36.693Z,80.06
2022-09-15T01:39:57.852Z,80.05
2022-09-15T01:40:18.973Z,80.05
2022-09-15T01:40:40.024Z,80.11
2022-09-15T01:41:01.094Z,80.12
2022-09-15T01:41:22.139Z,80.08
2022-09-15T01:41:43.313Z,80.10
2022-09-15T01:42:04.380Z,80.07
2022-09-15T01:42:25.437Z,80.10
2022-09-15T01:42:46.530Z,80.06
2022-09-15T01:43:07.655Z,80.04
2022-09-15T01:43:28.684Z,80.00
2022-09-15T01:43:49.751Z,80.01
2022-09-15T01:44:10.793Z,79.96
2022-09-15T01:44:31.853Z,79.94
2022-09-15T01:44:52.895Z,79.90
2022-09-15T01:45:13.999Z,79.81
2022-09-15T01:45:35.098Z,79.82
2022-09-15T01:45:56.194Z,79.74
2022-09-15T01:46:17.335Z,79.77
2022-09-15T01:46:38.398Z,79.76
2022-09-15T01:46:59.471Z,79.84
2022-09-15T01:47:20.543Z,79.85
2022-09-15T01:47:41.575Z,79.92
2022-09-15T01:48:02.637Z,79.96
2022-09-15T01:48:23.690Z,80.02
2022-09-15T01:48:44.739Z,80.05
2022-09-15T01:49:05.793Z,80.06
2022-09-15T01:49:26.897Z,80.06
2022-09-15T01:49:47.930Z,80.06
2022-09-15T01:50:08.989Z,80.05
2022-09-15T01:50:30.059Z,80.05
2022-09-15T01:50:51.116Z,80.08
2022-09-15T01:51:12.165Z,80.08
2022-09-15T01:51:33.219Z,80.10
2022-09-15T01:51:54.291Z,80.06
2022-09-15T01:52:15.481Z,80.05
2022-09-15T01:52:36.541Z,80.07
2022-09-15T01:52:57.589Z,80.05
2022-09-15T01:53:18.639Z,80.00
2022-09-15T01:53:39.699Z,79.95
2022-09-15T01:54:00.754Z,79.94
2022-09-15T01:54:21.800Z,79.99
2022-09-15T01:54:42.847Z,80.02
2022-09-15T01:55:03.926Z,80.00
2022-09-15T01:55:24.965Z,80.03
2022-09-15T01:55:46.017Z,80.10
2022-09-15T01:56:07.088Z,80.13
2022-09-15T01:56:28.124Z,80.11
2022-09-15T01:56:49.189Z,80.07
2022-09-15T01:57:10.234Z,80.09
2022-09-15T01:57:31.294Z,80.12
2022-09-15T01:57:52.464Z,80.16
2022-09-15T01:58:13.529Z,80.15
2022-09-15T01:58:34.572Z,80.21
2022-09-15T01:58:55.631Z,80.16
2022-09-15T01:59:16.681Z,80.13
2022-09-15T01:59:37.739Z,80.13
2022-09-15T01:59:58.798Z,80.12
2022-09-15T02:00:19.885Z,80.06
2022-09-15T02:00:40.901Z,80.03
2022-09-15T02:01:02.007Z,80.02
2022-09-15T02:01:23.066Z,80.00
2022-09-15T02:01:44.274Z,80.00
2022-09-15T02:02:05.467Z,80.01
2022-09-15T02:02:26.635Z,80.08
2022-09-15T02:02:47.687Z,80.03
2022-09-15T02:03:08.855Z,80.02
2022-09-15T02:03:29.909Z,80.04
2022-09-15T02:03:50.957Z,80.04
2022-09-15T02:04:12.020Z,80.03
2022-09-15T02:04:33.093Z,80.07
2022-09-15T02:04:54.135Z,79.98
2022-09-15T02:05:15.179Z,79.98
2022-09-15T02:05:36.230Z,79.99
2022-09-15T02:05:57.283Z,80.03
2022-09-15T02:06:18.335Z,80.04
2022-09-15T02:06:39.416Z,80.00
2022-09-15T02:07:00.461Z,80.02
2022-09-15T02:07:21.526Z,80.05
2022-09-15T02:07:42.583Z,80.07
2022-09-15T02:08:03.630Z,80.15
2022-09-15T02:08:24.687Z,80.06
2022-09-15T02:08:45.762Z,80.04
2022-09-15T02:09:06.795Z,80.03
2022-09-15T02:09:27.849Z,80.10
2022-09-15T02:09:48.902Z,80.11
2022-09-15T02:10:09.981Z,80.12
2022-09-15T02:10:31.006Z,80.13
2022-09-15T02:10:52.064Z,80.11
2022-09-15T02:11:13.117Z,80.15
2022-09-15T02:11:34.152Z,80.09
2022-09-15T02:11:55.200Z,80.09
2022-09-15T02:12:16.249Z,80.09
2022-09-15T02:12:37.300Z,80.14
2022-09-15T02:12:58.346Z,80.17
2022-09-15T02:13:19.404Z,80.24
2022-09-15T02:13:40.472Z,80.26
2022-09-15T02:14:01.537Z,80.27
2022-09-15T02:14:22.593Z,80.32
2022-09-15T02:14:43.643Z,80.31
2022-09-15T02:15:04.695Z,80.33
2022-09-15T02:15:25.756Z,80.33
2022-09-15T02:15:46.802Z,80.36
2022-09-15T02:16:07.937Z,80.35
2022-09-15T02:16:29.103Z,80.33
2022-09-15T02:16:50.279Z,80.32
2022-09-15T02:17:11.296Z,80.33
2022-09-15T02:17:32.347Z,80.37
2022-09-15T02:17:53.438Z,80.26
2022-09-15T02:18:14.479Z,80.30
2022-09-15T02:18:35.574Z,80.29
2022-09-15T02:18:56.721Z,80.29
2022-09-15T02:19:17.765Z,80.34
2022-09-15T02:19:38.821Z,80.32
2022-09-15T02:19:59.868Z,80.32
2022-09-15T02:20:20.924Z,80.34
2022-09-15T02:20:41.964Z,80.35
2022-09-15T02:21:03.035Z,80.37
2022-09-15T02:21:24.069Z,80.29
2022-09-15T02:21:45.133Z,80.21
2022-09-15T02:22:06.186Z,80.14
2022-09-15T02:22:27.242Z,80.22
2022-09-15T02:22:48.286Z,80.26
2022-09-15T02:23:09.335Z,80.29
2022-09-15T02:23:30.384Z,80.30
2022-09-15T02:23:51.583Z,80.34
2022-09-15T02:24:12.655Z,80.39
2022-09-15T02:24:33.711Z,80.41
2022-09-15T02:24:54.783Z,80.40
2022-09-15T02:25:15.839Z,80.42
2022-09-15T02:25:36.878Z,80.49
2022-09-15T02:25:57.930Z,80.43
2022-09-15T02:26:18.978Z,80.50
2022-09-15T02:26:40.027Z,80.48
2022-09-15T02:27:01.075Z,80.55
2022-09-15T02:27:22.245Z,80.51
2022-09-15T02:27:43.349Z,80.54
2022-09-15T02:28:04.370Z,80.50
2022-09-15T02:28:25.423Z,80.43
2022-09-15T02:28:46.462Z,80.47
2022-09-15T02:29:07.512Z,80.42
2022-09-15T02:29:28.570Z,80.42
2022-09-15T02:29:49.643Z,80.40
2022-09-15T02:30:10.686Z,80.43
2022-09-15T02:30:31.732Z,80.46
2022-09-15T02:30:52.782Z,80.49
2022-09-15T02:31:13.908Z,80.55
2022-09-15T02:31:35.019Z,80.53
2022-09-15T02:31:56.133Z,80.63
2022-09-15T02:32:17.193Z,80.61
2022-09-15T02:32:38.274Z,80.68
2022-09-15T02:32:59.317Z,80.69
2022-09-15T02:33:20.373Z,80.67
2022-09-15T02:33:41.427Z,80.71
2022-09-15T02:34:02.523Z,80.68
2022-09-15T02:34:23.565Z,80.72
2022-09-15T02:34:44.615Z,80.77
2022-09-15T02:35:05.667Z,80.74
2022-09-15T02:35:26.712Z,80.74
2022-09-15T02:35:47.768Z,80.72
2022-09-15T02:36:08.849Z,80.76
2022-09-15T02:36:29.879Z,80.70
2022-09-15T02:36:50.926Z,80.74
2022-09-15T02:37:11.987Z,80.75
2022-09-15T02:37:33.036Z,80.75
2022-09-15T02:37:54.199Z,80.68
2022-09-15T02:38:15.251Z,80.64
2022-09-15T02:38:36.461Z,80.69
2022-09-15T02:38:57.477Z,80.64
2022-09-15T02:39:18.529Z,80.71
2022-09-15T02:39:39.571Z,80.69
2022-09-15T02:40:00.786Z,80.69
2022-09-15T02:40:21.970Z,80.70
2022-09-15T02:40:43.018Z,80.75
2022-09-15T02:41:04.071Z,80.74
2022-09-15T02:41:25.151Z,80.70
2022-09-15T02:41:46.197Z,80.71
2022-09-15T02:42:07.238Z,80.62
2022-09-15T02:42:28.328Z,80.58
2022-09-15T02:42:49.355Z,80.64
2022-09-15T02:43:10.424Z,80.59
2022-09-15T02:43:31.481Z,80.64
2022-09-15T02:43:52.600Z,80.65
2022-09-15T02:44:13.614Z,80.63
2022-09-15T02:44:34.668Z,80.58
2022-09-15T02:44:55.708Z,80.65
2022-09-15T02:45:16.839Z,80.60
2022-09-15T02:45:37.985Z,80.61
2022-09-15T02:45:59.068Z,80.61
2022-09-15T02:46:20.086Z,80.64
2022-09-15T02:46:41.166Z,80.68
2022-09-15T02:47:02.193Z,80.71
2022-09-15T02:47:23.257Z,80.78
2022-09-15T02:47:44.305Z,80.71
2022-09-15T02:48:05.359Z,80.73
2022-09-15T02:48:26.532Z,80.68
2022-09-15T02:48:47.614Z,80.60
2022-09-15T02:49:08.642Z,80.69
2022-09-15T02:49:29.686Z,80.70
2022-09-15T02:49:50.785Z,80.73
2022-09-15T02:50:11.809Z,80.67
2022-09-15T02:50:32.871Z,80.60
2022-09-15T02:50:53.917Z,80.51
2022-09-15T02:51:14.974Z,80.50
2022-09-15T02:51:36.068Z,80.52
2022-09-15T02:51:57.155Z,80.54
2022-09-15T02:52:18.214Z,80.58
2022-09-15T02:52:39.385Z,80.62
2022-09-15T02:53:00.441Z,80.63
2022-09-15T02:53:21.496Z,80.65
2022-09-15T02:53:42.574Z,80.67
2022-09-15T02:54:03.612Z,80.71
2022-09-15T02:54:24.656Z,80.73
2022-09-15T02:54:45.703Z,80.72
2022-09-15T02:55:06.766Z,80.69
2022-09-15T02:55:27.837Z,80.64
2022-09-15T02:55:48.893Z,80.67
2022-09-15T02:56:09.928Z,80.65
2022-09-15T02:56:30.978Z,80.53
2022-09-15T02:56:52.026Z,80.55
2022-09-15T02:57:13.081Z,80.56
2022-09-15T02:57:34.148Z,80.56
2022-09-15T02:57:55.327Z,80.60
2022-09-15T02:58:16.334Z,80.56
2022-09-15T02:58:37.391Z,80.57
2022-09-15T02:58:58.437Z,80.59
2022-09-15T02:59:19.478Z,80.55
2022-09-15T02:59:40.543Z,80.49
2022-09-15T03:00:01.628Z,80.48
2022-09-15T03:00:22.657Z,80.42
2022-09-15T03:00:43.781Z,80.41
2022-09-15T03:01:04.915Z,80.46
2022-09-15T03:01:26.009Z,80.49
2022-09-15T03:01:47.138Z,80.52
2022-09-15T03:02:08.269Z,80.56
2022-09-15T03:02:29.367Z,80.55
2022-09-15T03:02:50.387Z,80.57
2022-09-15T03:03:11.609Z,80.56
2022-09-15T03:03:32.652Z,80.57
2022-09-15T03:03:53.693Z,80.54
2022-09-15T03:04:14.751Z,80.53
2022-09-15T03:04:35.794Z,80.54
2022-09-15T03:04:56.848Z,80.55
2022-09-15T03:05:17.901Z,80.56
2022-09-15T03:05:38.959Z,80.59
2022-09-15T03:06:00.000Z,80.57
2022-09-15T03:06:21.068Z,80.52
2022-09-15T03:06:42.104Z,80.50
2022-09-15T03:07:03.178Z,80.55
2022-09-15T03:07:24.221Z,80.48
2022-09-15T03:07:45.262Z,80.47
2022-09-15T03:08:06.313Z,80.49
2022-09-15T03:08:27.687Z,80.52
2022-09-15T03:08:48.710Z,80.51
2022-09-15T03:09:09.761Z,80.54
2022-09-15T03:09:30.905Z,80.56
2022-09-15T03:09:51.914Z,80.59
2022-09-15T03:10:12.961Z,80.60
2022-09-15T03:10:34.038Z,80.59
2022-09-15T03:10:55.073Z,80.64
2022-09-15T03:11:16.130Z,80.64
2022-09-15T03:11:37.178Z,80.63
2022-09-15T03:11:58.229Z,80.59
2022-09-15T03:12:19.293Z,80.61
2022-09-15T03:12:40.499Z,80.68
2022-09-15T03:13:01.548Z,80.71
2022-09-15T03:13:22.596Z,80.69
2022-09-15T03:14:04.659Z,80.69
2022-09-15T03:14:25.713Z,80.69
2022-09-15T03:14:46.760Z,80.57
2022-09-15T03:15:07.840Z,80.60
2022-09-15T03:15:28.881Z,80.62
2022-09-15T03:15:49.931Z,80.60
2022-09-15T03:16:11.075Z,80.60
2022-09-15T03:16:32.185Z,80.65
2022-09-15T03:16:53.212Z,80.61
2022-09-15T03:17:14.265Z,80.58
2022-09-15T03:17:35.326Z,80.48
2022-09-15T03:17:56.368Z,80.46
2022-09-15T03:18:17.416Z,80.41
2022-09-15T03:18:38.476Z,80.41
2022-09-15T03:18:59.546Z,80.40
2022-09-15T03:19:20.601Z,80.42
2022-09-15T03:19:41.692Z,80.44
2022-09-15T03:20:02.725Z,80.44
2022-09-15T03:20:23.773Z,80.38
2022-09-15T03:20:44.828Z,80.39
2022-09-15T03:21:05.886Z,80.34
2022-09-15T03:21:26.949Z,80.35
2022-09-15T03:21:47.997Z,80.36
2022-09-15T03:22:09.067Z,80.36
2022-09-15T03:22:30.101Z,80.40
2022-09-15T03:22:51.158Z,80.48
2022-09-15T03:23:12.208Z,80.51
2022-09-15T03:23:33.253Z,80.49
2022-09-15T03:23:54.317Z,80.54
2022-09-15T03:24:15.487Z,80.55
2022-09-15T03:24:36.570Z,80.58
2022-09-15T03:24:57.613Z,80.62
2022-09-15T03:25:18.675Z,80.65
2022-09-15T03:25:39.735Z,80.66
2022-09-15T03:26:00.764Z,80.62
2022-09-15T03:26:21.819Z,80.61
2022-09-15T03:26:42.875Z,80.58
2022-09-15T03:27:03.923Z,80.55
2022-09-15T03:27:24.983Z,80.62
2022-09-15T03:27:46.057Z,80.65
2022-09-15T03:28:07.105Z,80.66
2022-09-15T03:28:28.272Z,80.68
2022-09-15T03:28:49.327Z,80.70
2022-09-15T03:29:10.377Z,80.71
2022-09-15T03:29:31.425Z,80.68
2022-09-15T03:29:52.502Z,80.68
2022-09-15T03:30:13.547Z,80.67
2022-09-15T03:30:34.600Z,80.67
2022-09-15T03:30:55.653Z,80.72
2022-09-15T03:31:16.959Z,80.69
2022-09-15T03:31:38.055Z,80.71
2022-09-15T03:31:59.266Z,80.68
2022-09-15T03:32:20.310Z,80.65
2022-09-15T03:32:41.365Z,80.68
2022-09-15T03:33:02.414Z,80.65
2022-09-15T03:33:23.592Z,80.61
2022-09-15T03:33:44.646Z,80.59
2022-09-15T03:34:05.720Z,80.58
2022-09-15T03:34:26.756Z,80.60
2022-09-15T03:34:47.817Z,80.58
2022-09-15T03:35:08.867Z,80.57
2022-09-15T03:35:29.917Z,80.56
2022-09-15T03:35:50.976Z,80.52
2022-09-15T03:36:12.062Z,80.46
2022-09-15T03:36:33.173Z,80.46
2022-09-15T03:36:54.222Z,80.43
2022-09-15T03:37:15.262Z,80.34
2022-09-15T03:37:36.316Z,80.33
2022-09-15T03:37:57.372Z,80.38
2022-09-15T03:38:18.433Z,80.41
2022-09-15T03:38:39.541Z,80.44
2022-09-15T03:39:00.572Z,80.46
2022-09-15T03:39:21.635Z,80.54
2022-09-15T03:39:42.690Z,80.55
2022-09-15T03:40:03.876Z,80.55
2022-09-15T03:40:25.085Z,80.54
2022-09-15T03:40:46.121Z,80.50
2022-09-15T03:41:07.192Z,80.49
2022-09-15T03:41:28.231Z,80.45
2022-09-15T03:41:49.300Z,80.45
2022-09-15T03:42:10.336Z,80.42
2022-09-15T03:42:31.393Z,80.34
2022-09-15T03:42:52.452Z,80.35
2022-09-15T03:43:18.552Z,80.34
2022-09-15T03:43:40.494Z,80.50
2022-09-15T03:44:01.557Z,80.48
2022-09-15T03:44:22.609Z,80.45
2022-09-15T03:44:43.657Z,80.47
2022-09-15T03:45:04.710Z,80.45
2022-09-15T03:45:25.827Z,80.48
2022-09-15T03:45:46.973Z,80.47
2022-09-15T03:46:08.119Z,80.43
2022-09-15T03:46:29.258Z,80.47
2022-09-15T03:46:50.324Z,80.49
2022-09-15T03:47:11.371Z,80.48
2022-09-15T03:47:32.429Z,80.50
2022-09-15T03:47:53.469Z,80.58
2022-09-15T03:48:14.522Z,80.56
2022-09-15T03:48:35.603Z,80.54
2022-09-15T03:48:56.690Z,80.54
2022-09-15T03:49:17.756Z,80.53
2022-09-15T03:49:38.816Z,80.57
2022-09-15T03:49:59.922Z,80.52
2022-09-15T03:50:20.955Z,80.57
2022-09-15T03:50:42.008Z,80.52
2022-09-15T03:51:03.056Z,80.55
2022-09-15T03:51:24.113Z,80.50
2022-09-15T03:51:45.172Z,80.50
2022-09-15T03:52:06.253Z,80.56
2022-09-15T03:52:27.327Z,80.51
2022-09-15T03:52:48.356Z,80.51
2022-09-15T03:53:09.406Z,80.60
2022-09-15T03:53:30.456Z,80.51
2022-09-15T03:53:51.622Z,80.53
2022-09-15T03:54:12.800Z,80.48
2022-09-15T03:54:33.873Z,80.52
2022-09-15T03:54:54.903Z,80.47
2022-09-15T03:55:15.953Z,80.45
2022-09-15T03:55:37.016Z,80.53
2022-09-15T03:55:58.077Z,80.53
2022-09-15T03:56:19.116Z,80.52
2022-09-15T03:56:40.172Z,80.54
2022-09-15T03:57:01.234Z,80.49
2022-09-15T03:57:22.272Z,80.46
2022-09-15T03:57:43.327Z,80.49
2022-09-15T03:58:04.375Z,80.51
2022-09-15T03:58:30.145Z,80.50
2022-09-15T03:58:52.536Z,80.49
2022-09-15T03:59:13.746Z,80.45
2022-09-15T03:59:34.770Z,80.46
2022-09-15T03:59:55.819Z,80.48
2022-09-15T04:00:16.891Z,80.53
2022-09-15T04:00:37.979Z,80.51
2022-09-15T04:00:59.060Z,80.47
2022-09-15T04:01:20.204Z,80.52
2022-09-15T04:01:41.298Z,80.56
2022-09-15T04:02:02.459Z,80.56
2022-09-15T04:02:23.562Z,80.57
2022-09-15T04:02:44.656Z,80.57
2022-09-15T04:03:05.706Z,80.59
2022-09-15T04:03:26.788Z,80.58
2022-09-15T04:03:51.090Z,80.50
2022-09-15T04:04:12.555Z,80.51
2022-09-15T04:04:33.732Z,80.46
2022-09-15T04:04:54.789Z,80.44
2022-09-15T04:05:15.850Z,80.36
2022-09-15T04:05:36.922Z,80.32
2022-09-15T04:05:57.957Z,80.28
2022-09-15T04:06:19.016Z,80.29
2022-09-15T04:06:40.070Z,80.31
2022-09-15T04:07:01.119Z,80.41
2022-09-15T04:07:22.202Z,80.45
2022-09-15T04:07:43.265Z,80.44
2022-09-15T04:08:04.295Z,80.55
2022-09-15T04:08:25.336Z,80.55
2022-09-15T04:08:46.393Z,80.64
2022-09-15T04:09:07.438Z,80.63
2022-09-15T04:09:28.506Z,80.67
2022-09-15T04:09:49.736Z,80.64
2022-09-15T04:10:10.785Z,80.64
2022-09-15T04:10:31.831Z,80.67
2022-09-15T04:10:52.874Z,80.65
2022-09-15T04:11:13.939Z,80.60
2022-09-15T04:11:34.978Z,80.57
2022-09-15T04:11:56.057Z,80.51
2022-09-15T04:12:17.107Z,80.46
2022-09-15T04:12:38.207Z,80.53
2022-09-15T04:12:59.281Z,80.55
2022-09-15T04:13:20.334Z,80.60
2022-09-15T04:13:41.384Z,80.65
2022-09-15T04:14:02.436Z,80.67
2022-09-15T04:14:23.528Z,80.64
2022-09-15T04:14:44.549Z,80.60
2022-09-15T04:15:05.610Z,80.57
2022-09-15T04:15:26.671Z,80.54
2022-09-15T04:15:47.713Z,80.56
2022-09-15T04:16:08.885Z,80.62
2022-09-15T04:16:30.020Z,80.65
2022-09-15T04:16:51.066Z,80.63
2022-09-15T04:17:12.104Z,80.63
2022-09-15T04:17:33.150Z,80.64
2022-09-15T04:17:54.202Z,80.63
2022-09-15T04:18:15.254Z,80.60
2022-09-15T04:18:36.309Z,80.67
2022-09-15T04:18:57.521Z,80.64
2022-09-15T04:19:18.559Z,80.69
2022-09-15T04:19:39.607Z,80.69
2022-09-15T04:20:00.655Z,80.70
2022-09-15T04:20:21.742Z,80.66
2022-09-15T04:20:42.787Z,80.63
2022-09-15T04:21:03.845Z,80.67
2022-09-15T04:21:24.921Z,80.61
2022-09-15T04:21:45.969Z,80.54
2022-09-15T04:22:07.031Z,80.48
2022-09-15T04:22:28.068Z,80.51
2022-09-15T04:22:49.260Z,80.51
2022-09-15T04:23:10.293Z,80.44
2022-09-15T04:23:31.346Z,80.42
2022-09-15T04:23:52.527Z,80.43
2022-09-15T04:24:13.636Z,80.47
2022-09-15T04:24:34.690Z,80.47
2022-09-15T04:24:55.733Z,80.51
2022-09-15T04:25:16.798Z,80.53
2022-09-15T04:25:37.860Z,80.57
2022-09-15T04:25:58.922Z,80.56
2022-09-15T04:26:19.983Z,80.54
2022-09-15T04:26:41.013Z,80.40
2022-09-15T04:27:02.069Z,80.40
2022-09-15T04:27:23.116Z,80.41
2022-09-15T04:27:44.166Z,80.41
2022-09-15T04:28:05.223Z,80.40
2022-09-15T04:28:26.321Z,80.45
2022-09-15T04:28:47.468Z,80.36
2022-09-15T04:29:08.517Z,80.28
2022-09-15T04:29:29.570Z,80.32
2022-09-15T04:29:50.627Z,80.27
2022-09-15T04:30:11.674Z,80.31
2022-09-15T04:30:32.756Z,80.32
2022-09-15T04:30:53.795Z,80.39
2022-09-15T04:31:14.908Z,80.43
2022-09-15T04:31:35.994Z,80.46
2022-09-15T04:31:57.019Z,80.44
2022-09-15T04:32:18.087Z,80.45